Time;durP1;ratioP1;P1;durP2;ratioP2;P2;SDS_P1;SDS_P2;PMS_P1;PMS_P2;Temp;Humidity;BMP_temperature;BMP_pressure;BME280_temperature;BME280_humidity;BME280_pressure;Samples;Min_cycle;Max_cycle;Signal;HPM_P1;HPM_P2
2022/11/19 00:01:50;;;;;;;5.05;3.63;;;9.00;62.80;;;;;;4967747;28;20037;-84
2022/11/19 00:04:16;;;;;;;4.07;3.47;;;8.90;62.20;;;;;;4999072;28;20100;-84
2022/11/19 00:06:42;;;;;;;5.80;3.33;;;8.90;61.90;;;;;;4999809;28;20076;-85
2022/11/19 00:09:13;;;;;;;4.47;3.38;;;8.90;61.60;;;;;;4964304;28;20044;-83
2022/11/19 00:14:23;;;;;;;5.57;3.42;;;8.90;61.10;;;;;;4986416;28;20132;-82
2022/11/19 00:16:49;;;;;;;4.85;3.38;;;8.80;60.80;;;;;;5015433;28;20056;-82
2022/11/19 00:19:15;;;;;;;5.15;3.55;;;8.90;60.80;;;;;;4982145;28;20511;-82
2022/11/19 00:21:41;;;;;;;4.50;3.67;;;8.90;60.70;;;;;;4965909;28;20520;-81
2022/11/19 00:24:09;;;;;;;3.90;3.22;;;8.90;60.60;;;;;;4984384;28;20041;-82
2022/11/19 00:26:35;;;;;;;4.38;3.50;;;8.80;60.50;;;;;;5015542;28;20417;-81
2022/11/19 00:29:01;;;;;;;4.32;3.72;;;8.80;60.50;;;;;;4986440;28;20026;-81
2022/11/19 00:31:26;;;;;;;4.80;3.60;;;8.80;60.50;;;;;;4999015;28;20088;-81
2022/11/19 00:33:53;;;;;;;6.30;3.70;;;8.80;60.50;;;;;;4995736;28;20053;-81
2022/11/19 00:36:19;;;;;;;5.97;3.50;;;8.80;60.50;;;;;;4979427;28;20145;-81
2022/11/19 00:38:45;;;;;;;6.15;3.50;;;8.80;61.10;;;;;;4970153;28;20045;-81
2022/11/19 00:41:11;;;;;;;5.13;3.67;;;8.80;60.50;;;;;;4983094;28;20037;-81
2022/11/19 00:43:46;;;;;;;6.15;3.70;;;8.70;60.40;;;;;;4982397;28;20417;-81
2022/11/19 00:46:29;;;;;;;6.45;3.92;;;8.70;60.40;;;;;;4981848;28;20038;-80
2022/11/19 00:48:57;;;;;;;4.85;3.58;;;8.70;60.30;;;;;;4994131;28;20038;-81
2022/11/19 00:51:26;;;;;;;5.80;4.15;;;8.70;60.40;;;;;;4985726;28;20095;-81
2022/11/19 00:53:52;;;;;;;5.90;3.78;;;8.70;60.20;;;;;;5016561;28;20097;-81
2022/11/19 00:56:20;;;;;;;6.07;3.72;;;8.70;60.30;;;;;;4982292;28;20041;-81
2022/11/19 00:58:47;;;;;;;5.88;3.97;;;8.70;60.30;;;;;;4986890;28;20124;-81
2022/11/19 01:01:14;;;;;;;6.00;3.60;;;8.70;60.30;;;;;;4996842;28;20038;-81
2022/11/19 01:03:41;;;;;;;6.07;3.75;;;8.70;60.20;;;;;;5017890;28;20038;-81
2022/11/19 01:06:08;;;;;;;4.97;3.50;;;8.70;60.30;;;;;;5018726;28;20033;-80
2022/11/19 01:08:35;;;;;;;5.25;4.28;;;8.60;60.30;;;;;;5016939;28;20044;-80
2022/11/19 01:11:13;;;;;;;5.95;3.88;;;8.60;60.20;;;;;;5020667;28;20025;-81
2022/11/19 01:13:39;;;;;;;5.22;3.33;;;8.60;60.20;;;;;;5002881;28;20053;-81
2022/11/19 01:16:21;;;;;;;6.80;3.60;;;8.60;60.30;;;;;;5020820;28;20029;-81
2022/11/19 01:18:49;;;;;;;7.20;4.00;;;8.60;60.30;;;;;;5019444;28;20037;-80
2022/11/19 01:21:16;;;;;;;5.28;3.85;;;8.60;60.30;;;;;;5001491;28;20503;-82
2022/11/19 01:23:43;;;;;;;6.20;3.65;;;8.60;60.40;;;;;;5002452;28;20041;-79
2022/11/19 01:26:10;;;;;;;6.28;4.03;;;8.60;60.30;;;;;;5019184;28;20128;-79
2022/11/19 01:28:37;;;;;;;7.93;4.00;;;8.60;60.30;;;;;;4984996;28;20038;-86
2022/11/19 01:31:23;;;;;;;5.82;3.85;;;8.60;60.20;;;;;;4982541;28;20029;-84
2022/11/19 01:33:49;;;;;;;6.75;4.35;;;8.60;60.30;;;;;;4982105;28;20091;-85
2022/11/19 01:36:21;;;;;;;7.75;3.83;;;8.60;60.30;;;;;;4986417;28;20076;-86
2022/11/19 01:38:50;;;;;;;7.00;4.47;;;8.60;60.10;;;;;;4962018;28;20029;-86
2022/11/19 01:41:18;;;;;;;8.43;4.18;;;8.60;60.00;;;;;;4967087;28;20563;-85
2022/11/19 01:43:51;;;;;;;7.22;3.78;;;8.50;60.00;;;;;;4986941;28;20032;-85
2022/11/19 01:46:20;;;;;;;6.55;3.95;;;8.50;59.80;;;;;;4985304;28;20037;-86
2022/11/19 01:48:54;;;;;;;9.70;4.95;;;8.50;59.90;;;;;;4985746;28;20041;-86
2022/11/19 01:51:29;;;;;;;6.15;4.03;;;8.50;59.80;;;;;;4985660;28;20084;-84
2022/11/19 01:54:00;;;;;;;6.43;4.00;;;8.50;59.80;;;;;;4984395;28;20091;-85
2022/11/19 01:56:28;;;;;;;6.30;3.70;;;8.50;59.80;;;;;;4976170;28;20456;-85
2022/11/19 01:59:04;;;;;;;6.13;4.00;;;8.50;59.80;;;;;;4984716;28;20025;-84
2022/11/19 02:01:31;;;;;;;5.28;3.92;;;8.50;59.80;;;;;;4976673;28;20332;-86
2022/11/19 02:04:01;;;;;;;6.85;4.07;;;8.50;59.80;;;;;;4966947;28;20048;-86
2022/11/19 02:06:28;;;;;;;5.00;3.45;;;8.50;59.80;;;;;;5019140;28;20042;-86
2022/11/19 02:08:54;;;;;;;6.07;3.55;;;8.50;59.90;;;;;;5018083;28;20033;-86
2022/11/19 02:11:50;;;;;;;5.18;3.85;;;8.50;59.80;;;;;;4985078;28;20508;-86
2022/11/19 02:14:39;;;;;;;5.28;3.55;;;8.50;59.80;;;;;;4985812;28;20547;-86
2022/11/19 02:17:28;;;;;;;6.60;3.72;;;8.50;59.70;;;;;;4964238;28;20034;-85
2022/11/19 02:20:24;;;;;;;6.50;3.63;;;8.50;59.60;;;;;;5003015;28;20388;-85
2022/11/19 02:22:50;;;;;;;;;;;8.50;59.50;;;;;;4989450;28;20046;-84
2022/11/19 02:25:22;;;;;;;6.38;3.90;;;8.50;59.40;;;;;;5001511;28;19975;-84
2022/11/19 02:28:06;;;;;;;5.72;3.85;;;8.40;59.40;;;;;;4976409;28;20156;-84
2022/11/19 02:30:37;;;;;;;7.13;3.78;;;8.50;59.40;;;;;;5016251;28;20550;-83
2022/11/19 02:33:33;;;;;;;8.05;4.07;;;8.40;59.40;;;;;;5000355;28;20038;-83
2022/11/19 02:36:33;;;;;;;4.78;3.47;;;8.40;59.40;;;;;;4984778;28;20403;-82
2022/11/19 02:39:09;;;;;;;5.93;4.25;;;8.50;59.50;;;;;;4999344;28;20044;-81
2022/11/19 02:41:43;;;;;;;6.22;3.33;;;8.40;59.40;;;;;;4983642;28;20423;-81
2022/11/19 02:47:21;;;;;;;7.18;3.75;;;8.40;59.50;;;;;;4999643;28;20057;-83
2022/11/19 02:49:52;;;;;;;6.68;4.18;;;8.40;59.40;;;;;;4998100;28;20056;-84
2022/11/19 02:52:19;;;;;;;5.53;3.85;;;8.40;59.30;;;;;;5000483;28;20124;-85
2022/11/19 02:54:45;;;;;;;5.70;3.70;;;8.40;59.40;;;;;;4999551;28;20038;-84
2022/11/19 02:57:12;;;;;;;5.40;3.72;;;8.40;59.40;;;;;;5001378;28;20064;-83
2022/11/19 03:05:26;;;;;;;6.15;4.10;;;8.40;59.20;;;;;;5016298;28;20048;-83
2022/11/19 03:07:52;;;;;;;7.15;3.88;;;8.40;59.10;;;;;;4977155;28;20465;-84
2022/11/19 03:10:21;;;;;;;4.50;3.92;;;8.40;59.20;;;;;;5017215;28;20037;-83
2022/11/19 03:16:40;;;;;;;5.95;3.80;;;8.40;59.10;;;;;;4966834;28;20092;-82
2022/11/19 03:18:58;;;;;;;5.20;3.30;;;8.40;59.00;;;;;;4999996;28;20060;-82
2022/11/19 03:21:43;;;;;;;4.70;3.40;;;8.40;58.90;;;;;;4999284;28;20472;-82
2022/11/19 03:24:26;;;;;;;4.72;3.55;;;8.40;58.90;;;;;;4999329;28;20107;-82
2022/11/19 03:27:07;;;;;;;5.22;3.47;;;8.40;58.90;;;;;;4990821;28;20037;-83
2022/11/19 03:29:38;;;;;;;5.88;4.38;;;8.40;58.90;;;;;;5001700;28;20042;-82
2022/11/19 03:32:09;;;;;;;5.10;3.55;;;8.40;58.90;;;;;;4982786;28;20042;-82
2022/11/19 03:34:38;;;;;;;5.95;4.00;;;8.40;58.90;;;;;;4977964;28;20512;-83
2022/11/19 03:37:06;;;;;;;4.47;3.42;;;8.40;58.90;;;;;;4966167;28;20030;-82
2022/11/19 03:39:35;;;;;;;6.50;3.70;;;8.40;58.80;;;;;;4987575;28;20381;-82
2022/11/19 03:42:04;;;;;;;6.05;3.63;;;8.40;58.80;;;;;;4999569;28;20033;-81
2022/11/19 03:44:57;;;;;;;5.53;3.53;;;8.40;58.60;;;;;;4982476;28;20492;-82
2022/11/19 03:47:32;;;;;;;5.80;3.85;;;8.40;58.60;;;;;;4984329;28;20066;-82
2022/11/19 03:50:04;;;;;;;5.07;3.33;;;8.40;58.50;;;;;;4999230;28;20045;-82
2022/11/19 03:52:32;;;;;;;6.20;3.47;;;8.40;59.10;;;;;;5016754;28;20033;-82
2022/11/19 03:54:58;;;;;;;5.53;3.85;;;8.30;58.40;;;;;;4984647;28;20037;-82
2022/11/19 03:57:25;;;;;;;5.45;3.80;;;8.30;58.20;;;;;;5016302;28;20033;-82
2022/11/19 03:59:51;;;;;;;8.85;4.05;;;8.40;58.40;;;;;;5017187;28;20029;-82
2022/11/19 04:02:17;;;;;;;5.28;4.07;;;8.30;58.30;;;;;;4999244;28;20480;-82
2022/11/19 04:04:43;;;;;;;4.72;3.70;;;8.30;58.20;;;;;;4999079;28;20041;-82
2022/11/19 04:07:15;;;;;;;7.03;3.92;;;8.40;58.30;;;;;;4999046;28;20053;-81
2022/11/19 04:09:41;;;;;;;6.80;3.85;;;8.30;58.30;;;;;;5005106;28;20072;-84
2022/11/19 04:12:16;;;;;;;5.85;3.75;;;8.40;58.40;;;;;;4999171;28;20030;-85
2022/11/19 04:14:42;;;;;;;4.90;3.60;;;8.30;58.30;;;;;;4998717;28;20037;-84
2022/11/19 04:17:10;;;;;;;5.03;3.72;;;8.30;58.40;;;;;;4983621;28;20335;-85
2022/11/19 04:19:35;;;;;;;4.18;3.67;;;8.30;58.50;;;;;;4998903;28;20120;-85
2022/11/19 04:22:01;;;;;;;6.30;4.30;;;8.40;59.10;;;;;;4986842;28;20120;-85
2022/11/19 04:24:27;;;;;;;6.75;4.40;;;8.30;58.60;;;;;;4969532;28;20038;-85
2022/11/19 04:26:53;;;;;;;7.03;4.00;;;8.30;58.60;;;;;;5014316;28;20057;-85
2022/11/19 04:29:19;;;;;;;5.10;3.72;;;8.30;58.50;;;;;;4981460;28;20029;-84
2022/11/19 04:31:45;;;;;;;6.38;4.30;;;8.30;58.40;;;;;;4995839;28;20033;-84
2022/11/19 04:34:11;;;;;;;5.50;4.28;;;8.30;58.50;;;;;;4981223;28;20037;-85
2022/11/19 04:36:40;;;;;;;8.02;4.53;;;8.30;58.60;;;;;;4982391;28;20527;-86
2022/11/19 04:39:07;;;;;;;7.75;4.32;;;8.30;58.50;;;;;;4973954;28;20038;-87
2022/11/19 04:41:33;;;;;;;5.32;3.83;;;8.30;58.60;;;;;;5015800;28;20178;-86
2022/11/19 04:43:59;;;;;;;6.13;4.40;;;8.30;58.60;;;;;;4974694;28;20089;-87
2022/11/19 04:46:25;;;;;;;6.45;3.72;;;8.30;58.60;;;;;;4965836;28;20034;-86
2022/11/19 04:48:51;;;;;;;6.68;4.53;;;8.30;58.60;;;;;;4967076;28;20037;-86
2022/11/19 04:51:18;;;;;;;6.00;4.18;;;8.30;58.50;;;;;;4958073;28;20511;-84
2022/11/19 04:53:44;;;;;;;6.60;4.50;;;8.30;58.60;;;;;;4998518;28;20053;-84
2022/11/19 04:56:09;;;;;;;6.80;4.50;;;8.30;58.50;;;;;;4982119;28;20033;-84
2022/11/19 04:58:36;;;;;;;5.10;4.25;;;8.40;58.50;;;;;;4982229;28;20033;-82
2022/11/19 05:01:02;;;;;;;6.15;4.20;;;8.30;58.50;;;;;;4988032;28;20429;-82
2022/11/19 05:03:28;;;;;;;7.30;3.72;;;8.30;58.40;;;;;;4997763;28;20029;-82
2022/11/19 05:05:54;;;;;;;5.45;4.10;;;8.30;58.30;;;;;;4982225;28;20037;-83
2022/11/19 05:08:20;;;;;;;5.13;4.10;;;8.30;58.40;;;;;;4977473;28;20044;-81
2022/11/19 05:10:46;;;;;;;6.50;4.65;;;8.30;58.30;;;;;;4996151;28;20404;-82
2022/11/19 05:13:12;;;;;;;6.78;4.20;;;8.30;58.30;;;;;;4982368;28;20167;-82
2022/11/19 05:15:38;;;;;;;5.93;4.13;;;8.30;58.20;;;;;;5015859;28;20504;-83
2022/11/19 05:18:04;;;;;;;6.22;4.32;;;8.30;58.20;;;;;;4997821;28;20038;-85
2022/11/19 05:20:30;;;;;;;6.07;4.13;;;8.30;58.20;;;;;;4982194;28;20159;-85
2022/11/19 05:22:56;;;;;;;6.40;3.78;;;8.30;58.40;;;;;;4966093;28;20033;-84
2022/11/19 05:25:22;;;;;;;7.00;4.20;;;8.30;58.40;;;;;;4964859;28;20045;-85
2022/11/19 05:27:48;;;;;;;6.10;3.78;;;8.30;58.30;;;;;;4965993;28;20519;-85
2022/11/19 05:30:15;;;;;;;7.82;4.30;;;8.30;58.20;;;;;;4979827;28;20095;-85
2022/11/19 05:32:41;;;;;;;7.05;4.60;;;8.30;58.20;;;;;;4998753;28;20042;-85
2022/11/19 05:35:07;;;;;;;7.32;4.53;;;8.30;58.30;;;;;;4969108;28;20030;-84
2022/11/19 05:37:33;;;;;;;6.50;4.35;;;8.30;58.30;;;;;;4963768;28;20138;-86
2022/11/19 05:39:59;;;;;;;7.70;4.40;;;8.30;58.40;;;;;;4958859;28;20133;-86
2022/11/19 05:42:25;;;;;;;5.15;4.20;;;8.30;58.20;;;;;;4972201;28;20132;-86
2022/11/19 05:44:51;;;;;;;5.75;4.38;;;8.30;58.40;;;;;;4982157;28;20038;-87
2022/11/19 05:47:17;;;;;;;8.55;4.80;;;8.30;58.30;;;;;;4981842;28;20041;-86
2022/11/19 05:49:43;;;;;;;10.52;4.55;;;8.30;58.30;;;;;;4966913;28;20412;-84
2022/11/19 05:52:10;;;;;;;5.57;4.35;;;8.30;58.30;;;;;;5005552;28;20034;-83
2022/11/19 05:54:36;;;;;;;6.20;4.68;;;8.30;58.30;;;;;;4984400;28;20132;-80
2022/11/19 05:57:02;;;;;;;7.18;4.35;;;8.30;58.20;;;;;;5017764;28;20120;-78
2022/11/19 05:59:29;;;;;;;6.38;4.70;;;8.30;58.20;;;;;;5000572;28;20033;-76
2022/11/19 06:01:55;;;;;;;5.28;4.47;;;8.30;58.20;;;;;;5017792;28;20033;-76
2022/11/19 06:04:21;;;;;;;6.22;4.68;;;8.40;58.40;;;;;;5017323;28;20359;-78
2022/11/19 06:06:47;;;;;;;10.93;4.80;;;8.30;58.30;;;;;;5018180;28;20030;-80
2022/11/19 06:09:13;;;;;;;6.90;4.55;;;8.40;58.40;;;;;;5018664;28;20052;-79
2022/11/19 06:11:49;;;;;;;7.25;4.88;;;8.30;58.20;;;;;;5018749;28;20038;-77
2022/11/19 06:14:16;;;;;;;7.25;4.57;;;8.30;58.20;;;;;;4975192;28;20581;-79
2022/11/19 06:16:42;;;;;;;8.38;4.85;;;8.30;58.20;;;;;;5018153;28;20029;-78
2022/11/19 06:19:08;;;;;;;8.43;5.00;;;8.30;58.20;;;;;;5018303;28;20049;-84
2022/11/19 06:21:34;;;;;;;7.07;4.47;;;8.30;58.20;;;;;;4997990;28;20504;-80
2022/11/19 06:24:00;;;;;;;5.55;4.47;;;8.40;58.20;;;;;;4967349;28;20041;-83
2022/11/19 06:26:28;;;;;;;8.25;5.45;;;8.40;58.30;;;;;;5017578;28;20500;-80
2022/11/19 06:28:55;;;;;;;8.05;4.75;;;8.40;58.20;;;;;;5018939;28;20068;-83
2022/11/19 06:31:21;;;;;;;7.13;5.15;;;8.40;58.30;;;;;;4983666;28;20124;-82
2022/11/19 06:33:47;;;;;;;7.18;4.97;;;8.40;58.30;;;;;;4954476;28;20038;-81
2022/11/19 06:36:13;;;;;;;7.28;4.93;;;8.40;58.40;;;;;;5016569;28;20578;-80
2022/11/19 06:38:40;;;;;;;7.72;5.18;;;8.40;58.40;;;;;;5018194;28;20044;-84
2022/11/19 06:41:06;;;;;;;11.32;5.45;;;8.40;58.40;;;;;;4983259;28;20056;-80
2022/11/19 06:43:32;;;;;;;7.78;5.05;;;8.40;58.50;;;;;;5017594;28;20029;-79
2022/11/19 06:45:58;;;;;;;9.70;4.95;;;8.40;58.40;;;;;;4986793;28;20381;-78
2022/11/19 06:48:24;;;;;;;11.32;5.45;;;8.40;58.50;;;;;;5017619;28;20083;-78
2022/11/19 06:50:50;;;;;;;7.43;4.90;;;8.40;58.40;;;;;;5017028;28;20046;-79
2022/11/19 06:53:16;;;;;;;7.70;5.15;;;8.50;58.60;;;;;;5016859;28;20558;-78
2022/11/19 06:55:42;;;;;;;9.32;4.72;;;8.50;58.90;;;;;;4995892;28;20029;-78
2022/11/19 06:58:08;;;;;;;9.40;5.32;;;8.40;59.10;;;;;;5016880;28;20069;-79
2022/11/19 07:00:35;;;;;;;7.07;5.28;;;8.40;59.60;;;;;;5015476;28;20049;-77
2022/11/19 07:03:01;;;;;;;7.80;5.82;;;8.40;59.90;;;;;;5017416;28;20120;-80
2022/11/19 07:05:28;;;;;;;7.10;4.93;;;8.40;60.10;;;;;;4987075;28;20053;-78
2022/11/19 07:07:54;;;;;;;7.47;4.68;;;8.50;60.20;;;;;;4994522;28;20029;-78
2022/11/19 07:10:20;;;;;;;9.30;5.03;;;8.50;60.40;;;;;;5015572;28;20046;-77
2022/11/19 07:12:46;;;;;;;7.43;4.85;;;8.50;60.50;;;;;;4997665;28;20385;-79
2022/11/19 07:15:12;;;;;;;7.68;5.05;;;8.50;60.60;;;;;;4978508;28;20072;-77
2022/11/19 07:17:38;;;;;;;7.85;4.97;;;8.50;60.50;;;;;;5015691;28;20034;-77
2022/11/19 07:20:05;;;;;;;9.05;5.00;;;8.50;60.70;;;;;;5015145;28;20026;-77
2022/11/19 07:22:31;;;;;;;7.18;4.32;;;8.50;60.60;;;;;;5014688;28;20512;-77
2022/11/19 07:24:57;;;;;;;8.20;5.03;;;8.50;60.60;;;;;;5018445;28;20092;-77
2022/11/19 07:27:23;;;;;;;8.50;4.57;;;8.60;60.70;;;;;;5011904;28;20040;-78
2022/11/19 07:29:49;;;;;;;7.47;5.20;;;8.50;60.50;;;;;;5016147;28;20193;-76
2022/11/19 07:32:15;;;;;;;8.70;4.65;;;8.60;60.60;;;;;;5015973;28;20112;-74
2022/11/19 07:34:42;;;;;;;6.72;4.75;;;8.60;60.70;;;;;;5016428;28;20033;-76
2022/11/19 07:37:08;;;;;;;6.70;4.78;;;8.60;60.70;;;;;;5015989;28;20043;-77
2022/11/19 07:39:33;;;;;;;7.40;4.40;;;8.60;60.70;;;;;;5014891;28;20034;-76
2022/11/19 07:44:51;;;;;;;14.73;4.22;;;8.60;62.50;;;;;;5000737;28;20045;-74
2022/11/19 07:47:16;;;;;;;9.43;4.32;;;8.70;63.50;;;;;;5016380;28;20042;-74
2022/11/19 07:49:42;;;;;;;7.55;4.82;;;8.70;63.70;;;;;;5015293;28;20045;-75
2022/11/19 07:52:08;;;;;;;8.35;3.92;;;8.70;63.70;;;;;;4994426;28;20113;-74
2022/11/19 07:54:34;;;;;;;7.75;4.15;;;8.70;63.60;;;;;;5014269;28;20518;-74
2022/11/19 07:57:00;;;;;;;6.20;3.83;;;8.80;63.40;;;;;;5015289;28;20046;-74
2022/11/19 07:59:26;;;;;;;8.75;4.40;;;8.70;63.20;;;;;;5011383;28;20033;-76
2022/11/19 08:01:52;;;;;;;5.05;3.28;;;8.80;62.80;;;;;;5012268;28;20034;-75
2022/11/19 08:04:18;;;;;;;6.47;3.35;;;8.80;62.50;;;;;;5014310;28;20047;-76
2022/11/19 08:06:44;;;;;;;6.60;4.07;;;8.80;62.40;;;;;;4996832;28;20133;-78
2022/11/19 08:09:09;;;;;;;5.53;3.92;;;8.80;62.40;;;;;;5015859;28;20120;-78
2022/11/19 08:11:35;;;;;;;5.60;3.80;;;8.80;62.30;;;;;;5016070;28;20037;-78
2022/11/19 08:14:01;;;;;;;5.65;3.50;;;8.80;62.20;;;;;;5015711;28;20065;-79
2022/11/19 08:19:16;;;;;;;5.55;4.25;;;8.80;62.20;;;;;;4995533;28;20049;-74
2022/11/19 08:21:44;;;;;;;6.15;4.07;;;8.80;62.00;;;;;;5014677;28;20038;-75
2022/11/19 08:24:11;;;;;;;5.90;3.72;;;8.80;61.90;;;;;;5013913;28;20109;-76
2022/11/19 08:26:38;;;;;;;7.13;4.03;;;8.80;61.70;;;;;;5015363;28;20037;-76
2022/11/19 08:29:04;;;;;;;6.13;4.10;;;8.90;61.50;;;;;;5014410;28;20060;-76
2022/11/19 08:31:30;;;;;;;7.20;4.50;;;8.90;61.40;;;;;;5014271;28;20038;-76
2022/11/19 08:33:56;;;;;;;6.28;4.35;;;8.90;61.30;;;;;;4996130;28;20072;-77
2022/11/19 08:36:22;;;;;;;5.78;4.30;;;8.90;61.30;;;;;;5014328;28;20045;-76
2022/11/19 08:38:48;;;;;;;7.05;4.22;;;8.90;61.30;;;;;;5015398;28;20048;-76
2022/11/19 08:44:01;;;;;;;6.72;4.28;;;8.90;61.50;;;;;;4999756;28;20420;-77
2022/11/19 08:46:27;;;;;;;6.13;4.22;;;8.90;61.70;;;;;;5014968;28;20034;-76
2022/11/19 08:48:52;;;;;;;7.05;4.25;;;8.90;62.10;;;;;;5014239;28;20037;-78
2022/11/19 08:51:18;;;;;;;6.97;4.18;;;8.90;62.20;;;;;;5015231;28;20542;-77
2022/11/19 08:53:45;;;;;;;8.32;4.75;;;8.90;62.00;;;;;;5015116;28;20128;-77
2022/11/19 08:56:11;;;;;;;6.22;4.18;;;8.90;62.00;;;;;;5014115;28;20033;-76
2022/11/19 08:58:37;;;;;;;7.15;4.15;;;8.90;62.10;;;;;;5014414;28;20401;-77
2022/11/19 09:01:14;;;;;;;9.73;4.45;;;8.90;62.50;;;;;;5014345;28;20046;-76
2022/11/19 09:03:40;;;;;;;7.30;4.18;;;8.90;62.30;;;;;;5014045;28;20034;-77
2022/11/19 09:06:07;;;;;;;10.85;4.57;;;9.00;62.50;;;;;;4996651;28;20132;-77
2022/11/19 09:08:33;;;;;;;6.85;4.50;;;9.00;62.80;;;;;;5014093;28;20161;-76
2022/11/19 09:11:03;;;;;;;8.52;4.53;;;9.00;62.80;;;;;;5015363;28;20457;-77
2022/11/19 09:13:29;;;;;;;7.72;4.60;;;9.00;62.90;;;;;;5014331;28;20350;-77
2022/11/19 09:15:56;;;;;;;9.38;5.25;;;9.00;62.70;;;;;;5013546;28;20578;-77
2022/11/19 09:18:21;;;;;;;7.25;4.10;;;9.00;62.70;;;;;;5014123;28;20059;-77
2022/11/19 09:20:55;;;;;;;13.45;4.60;;;9.10;62.70;;;;;;5014099;28;20504;-77
2022/11/19 09:23:23;;;;;;;5.05;3.85;;;9.10;62.40;;;;;;5015087;28;20038;-76
2022/11/19 09:26:06;;;;;;;7.97;4.68;;;9.10;62.40;;;;;;5017140;28;20034;-77
2022/11/19 09:28:33;;;;;;;7.43;4.40;;;9.10;62.20;;;;;;5017492;28;20140;-77
2022/11/19 09:31:14;;;;;;;8.95;5.00;;;9.10;62.00;;;;;;5018629;28;20394;-77
2022/11/19 09:33:44;;;;;;;8.00;4.80;;;9.10;62.20;;;;;;5018200;28;20045;-77
2022/11/19 09:36:12;;;;;;;6.57;4.75;;;9.10;62.30;;;;;;5017045;28;20038;-77
2022/11/19 09:38:39;;;;;;;6.63;4.72;;;9.20;62.20;;;;;;5018351;28;20034;-77
2022/11/19 09:41:42;;;;;;;5.88;4.30;;;9.20;62.20;;;;;;5018982;28;20029;-77
2022/11/19 09:44:27;;;;;;;6.03;4.00;;;9.20;62.30;;;;;;5018347;28;20042;-76
2022/11/19 09:47:13;;;;;;;8.93;4.60;;;9.30;62.30;;;;;;5017617;28;20052;-76
2022/11/19 09:50:10;;;;;;;6.65;4.40;;;9.20;62.10;;;;;;5017267;28;20137;-77
2022/11/19 09:52:42;;;;;;;12.27;4.38;;;9.20;62.00;;;;;;5017951;28;20048;-76
2022/11/19 09:55:15;;;;;;;7.47;4.32;;;9.20;62.50;;;;;;5018516;28;20080;-76
2022/11/19 09:58:02;;;;;;;6.63;4.45;;;9.20;61.80;;;;;;4988554;28;20124;-76
2022/11/19 10:00:30;;;;;;;5.28;4.63;;;9.30;62.20;;;;;;5016208;28;20056;-76
2022/11/19 10:02:57;;;;;;;6.32;4.68;;;9.30;61.40;;;;;;5017636;28;20142;-76
2022/11/19 10:05:51;;;;;;;6.40;4.72;;;9.30;61.20;;;;;;5015728;28;20041;-77
2022/11/19 10:08:28;;;;;;;7.30;4.47;;;9.30;61.10;;;;;;5018258;28;20030;-77
2022/11/19 10:11:19;;;;;;;6.82;4.55;;;9.30;61.80;;;;;;5017605;28;20491;-76
2022/11/19 10:14:07;;;;;;;6.38;4.72;;;9.30;61.20;;;;;;5018199;28;20054;-76
2022/11/19 10:17:03;;;;;;;7.45;5.00;;;9.30;61.20;;;;;;5017233;28;20509;-76
2022/11/19 10:19:56;;;;;;;7.05;4.50;;;9.30;61.10;;;;;;5016318;28;20473;-76
2022/11/19 10:23:14;;;;;;;6.72;4.97;;;9.40;60.90;;;;;;5000465;28;20042;-76
2022/11/19 10:25:44;;;;;;;5.90;4.72;;;9.40;60.80;;;;;;4955675;28;20141;-76
2022/11/19 10:28:30;;;;;;;6.63;4.95;;;9.40;60.70;;;;;;4956237;28;20357;-76
2022/11/19 10:31:15;;;;;;;6.47;4.40;;;9.40;60.50;;;;;;4955876;28;20481;-76
2022/11/19 10:33:52;;;;;;;5.55;4.80;;;9.40;60.50;;;;;;4956665;28;20058;-76
2022/11/19 10:36:30;;;;;;;6.93;4.47;;;9.40;60.50;;;;;;4956283;28;20465;-76
2022/11/19 10:39:21;;;;;;;5.82;4.30;;;9.40;60.40;;;;;;4955432;28;20042;-76
2022/11/19 10:41:59;;;;;;;7.13;5.10;;;9.40;60.20;;;;;;4955791;28;20054;-76
2022/11/19 10:44:38;;;;;;;7.53;5.10;;;9.40;60.10;;;;;;4954886;28;20043;-76
2022/11/19 10:47:43;;;;;;;4.88;4.28;;;9.40;60.10;;;;;;4956070;28;20432;-75
2022/11/19 10:50:16;;;;;;;6.78;4.60;;;9.40;60.00;;;;;;4925014;28;20047;-77
2022/11/19 10:52:47;;;;;;;5.78;4.45;;;9.40;60.00;;;;;;4955966;28;20114;-76
2022/11/19 10:55:25;;;;;;;7.28;4.05;;;9.40;59.80;;;;;;4954806;28;20027;-75
2022/11/19 10:58:28;;;;;;;6.43;4.10;;;9.50;59.40;;;;;;4954835;28;20035;-76
2022/11/19 11:00:57;;;;;;;4.88;4.20;;;9.40;58.90;;;;;;4934980;29;20254;-75
2022/11/19 11:03:43;;;;;;;5.65;4.40;;;9.40;58.50;;;;;;4935791;29;20039;-75
2022/11/19 11:06:09;;;;;;;;;;;9.40;58.40;;;;;;4936385;29;20068;-75
2022/11/19 11:08:53;;;;;;;6.20;4.93;;;9.40;58.40;;;;;;4935741;29;19918;-76
2022/11/19 11:17:21;;;;;;;6.88;4.72;;;9.40;58.10;;;;;;4916892;29;20495;-75
2022/11/19 11:20:19;;;;;;;7.22;4.85;;;9.40;58.20;;;;;;4935446;29;20075;-75
2022/11/19 11:22:47;;;;;;;11.25;4.32;;;9.40;58.70;;;;;;4935676;29;20047;-76
2022/11/19 11:25:23;;;;;;;7.53;4.75;;;9.40;58.80;;;;;;4934506;29;20044;-76
2022/11/19 11:28:13;;;;;;;6.90;4.28;;;9.30;58.80;;;;;;4935862;29;20065;-76
2022/11/19 11:30:51;;;;;;;9.02;4.80;;;9.30;58.80;;;;;;4933566;29;20494;-75
2022/11/19 11:34:01;;;;;;;6.20;4.50;;;9.30;58.70;;;;;;4935811;29;20637;-75
2022/11/19 11:36:30;;;;;;;6.45;4.60;;;9.30;58.60;;;;;;4856611;29;20047;-74
2022/11/19 11:39:00;;;;;;;7.90;4.80;;;9.30;58.60;;;;;;4921758;28;20490;-77
2022/11/19 11:41:38;;;;;;;7.47;5.20;;;9.30;58.60;;;;;;4935308;29;20032;-76
2022/11/19 11:44:13;;;;;;;8.85;5.05;;;9.30;58.50;;;;;;4935805;29;20132;-75
2022/11/19 11:46:42;;;;;;;7.97;5.63;;;9.30;58.30;;;;;;4935413;28;20546;-75
2022/11/19 11:49:22;;;;;;;7.93;5.07;;;9.30;58.20;;;;;;4934552;29;20187;-77
2022/11/19 11:52:02;;;;;;;8.48;5.90;;;9.20;58.10;;;;;;4935823;29;20043;-78
2022/11/19 11:54:29;;;;;;;10.02;5.35;;;9.20;58.10;;;;;;4936077;29;20438;-78
2022/11/19 11:57:13;;;;;;;9.13;5.30;;;9.20;58.10;;;;;;4942903;28;20043;-76
2022/11/19 11:59:39;;;;;;;8.68;5.28;;;9.20;58.20;;;;;;4943476;29;20040;-75
2022/11/19 12:02:16;;;;;;;11.20;5.20;;;9.20;58.20;;;;;;4949049;29;20050;-75
2022/11/19 12:04:42;;;;;;;9.20;5.25;;;9.20;58.20;;;;;;4941548;29;20582;-76
2022/11/19 12:07:19;;;;;;;9.38;6.00;;;9.20;58.30;;;;;;4937986;29;20517;-77
2022/11/19 12:10:24;;;;;;;6.93;5.30;;;9.20;58.30;;;;;;4956859;28;20026;-76
2022/11/19 12:13:06;;;;;;;6.03;4.43;;;9.20;58.40;;;;;;4917280;29;20046;-76
2022/11/19 12:16:10;;;;;;;7.97;4.85;;;9.10;59.00;;;;;;4924152;29;20040;-76
2022/11/19 12:18:42;;;;;;;5.93;4.68;;;9.20;58.50;;;;;;4954515;28;20178;-77
2022/11/19 12:21:37;;;;;;;5.95;4.47;;;9.20;58.60;;;;;;4956788;28;20028;-75
2022/11/19 12:24:15;;;;;;;6.20;4.90;;;9.20;58.60;;;;;;4957531;28;20045;-77
2022/11/19 12:26:56;;;;;;;6.40;4.72;;;9.10;58.40;;;;;;4962170;28;20070;-78
2022/11/19 12:29:42;;;;;;;7.65;4.72;;;9.10;58.40;;;;;;4966649;28;20573;-77
2022/11/19 12:32:20;;;;;;;6.25;4.40;;;9.10;58.20;;;;;;4945686;28;20047;-77
2022/11/19 12:34:58;;;;;;;7.35;4.60;;;9.10;57.90;;;;;;4969256;28;20057;-77
2022/11/19 12:38:03;;;;;;;7.53;4.57;;;9.10;57.90;;;;;;4963291;28;20038;-76
2022/11/19 12:40:56;;;;;;;5.68;4.20;;;9.10;58.10;;;;;;4962649;28;20619;-78
2022/11/19 12:43:41;;;;;;;6.45;4.43;;;9.00;58.20;;;;;;4959141;28;20513;-76
2022/11/19 12:46:32;;;;;;;5.93;4.07;;;9.00;58.40;;;;;;4955315;28;20047;-78
2022/11/19 12:49:25;;;;;;;6.80;4.43;;;9.00;58.60;;;;;;4974033;28;20042;-76
2022/11/19 12:52:05;;;;;;;6.47;4.20;;;9.00;58.80;;;;;;4996896;28;20050;-75
2022/11/19 12:55:11;;;;;;;5.40;4.00;;;9.00;59.10;;;;;;5007230;28;20119;-79
2022/11/19 12:57:42;;;;;;;5.85;4.32;;;9.00;59.50;;;;;;4998364;28;20547;-75
2022/11/19 13:00:28;;;;;;;10.20;4.50;;;9.00;60.00;;;;;;5007841;28;20039;-77
2022/11/19 13:03:14;;;;;;;6.55;3.70;;;9.00;60.50;;;;;;5019946;28;20079;-77
2022/11/19 13:05:58;;;;;;;4.43;3.75;;;9.00;60.70;;;;;;5016693;28;20034;-77
2022/11/19 13:08:40;;;;;;;5.05;3.67;;;9.00;60.90;;;;;;4996452;28;20496;-77
2022/11/19 13:11:35;;;;;;;6.45;3.88;;;9.00;61.00;;;;;;5014598;28;20018;-77
2022/11/19 13:14:26;;;;;;;5.97;3.83;;;9.00;61.10;;;;;;5015169;28;20037;-76
2022/11/19 13:16:54;;;;;;;8.93;3.92;;;9.10;61.30;;;;;;5013908;28;20042;-76
2022/11/19 13:19:33;;;;;;;5.72;3.38;;;9.10;61.50;;;;;;5014756;28;20040;-75
2022/11/19 13:22:34;;;;;;;5.13;3.40;;;9.10;61.60;;;;;;5014935;28;20554;-78
2022/11/19 13:25:11;;;;;;;5.03;3.78;;;9.10;61.60;;;;;;5003217;28;20041;-80
2022/11/19 13:27:38;;;;;;;5.38;3.83;;;9.10;61.50;;;;;;4998323;28;20026;-80
2022/11/19 13:30:12;;;;;;;4.93;4.10;;;9.20;61.50;;;;;;5013774;28;20033;-76
2022/11/19 13:32:44;;;;;;;5.70;3.70;;;9.10;61.30;;;;;;5014624;28;20041;-77
2022/11/19 13:35:36;;;;;;;10.57;4.40;;;9.20;61.30;;;;;;4996841;28;20089;-77
2022/11/19 13:38:02;;;;;;;6.25;4.30;;;9.20;60.80;;;;;;5014645;28;20038;-77
2022/11/19 13:40:50;;;;;;;8.00;4.20;;;9.20;60.00;;;;;;5014552;28;20040;-77
2022/11/19 13:46:11;;;;;;;;;;;9.20;59.80;;;;;;5014790;28;20148;-77
2022/11/19 13:48:47;;;;;;;5.32;3.97;;;9.20;59.80;;;;;;5014518;28;19917;-77
2022/11/19 13:51:38;;;;;;;5.47;3.90;;;9.10;59.90;;;;;;4982381;28;20547;-77
2022/11/19 13:54:18;;;;;;;7.03;4.35;;;9.20;60.00;;;;;;4993856;28;20522;-77
2022/11/19 13:56:47;;;;;;;6.82;4.30;;;9.20;59.80;;;;;;4993551;28;20046;-78
2022/11/19 13:59:45;;;;;;;7.15;4.55;;;9.10;59.50;;;;;;4990001;28;20086;-77